sensor_id;sensor_type;location;lat;lon;timestamp;P1;durP1;ratioP1;P2;durP2;ratioP2
71104;SDS011;58760;48.716;8.962;2023-08-30T00:00:39;6.57;;;4.20;;
71104;SDS011;58760;48.716;8.962;2023-08-30T00:03:05;6.38;;;4.18;;
71104;SDS011;58760;48.716;8.962;2023-08-30T00:05:31;8.38;;;3.75;;
71104;SDS011;58760;48.716;8.962;2023-08-30T00:07:56;7.22;;;4.03;;
71104;SDS011;58760;48.716;8.962;2023-08-30T00:10:22;6.72;;;3.78;;
71104;SDS011;58760;48.716;8.962;2023-08-30T00:12:47;6.38;;;3.92;;
71104;SDS011;58760;48.716;8.962;2023-08-30T00:15:13;6.30;;;3.88;;
71104;SDS011;58760;48.716;8.962;2023-08-30T00:17:39;6.80;;;4.15;;
71104;SDS011;58760;48.716;8.962;2023-08-30T00:20:04;6.28;;;4.10;;
71104;SDS011;58760;48.716;8.962;2023-08-30T00:22:31;6.63;;;4.13;;
71104;SDS011;58760;48.716;8.962;2023-08-30T00:24:57;6.63;;;4.50;;
71104;SDS011;58760;48.716;8.962;2023-08-30T00:27:22;9.00;;;4.82;;
71104;SDS011;58760;48.716;8.962;2023-08-30T00:29:47;8.25;;;4.22;;
71104;SDS011;58760;48.716;8.962;2023-08-30T00:32:13;6.82;;;4.32;;
71104;SDS011;58760;48.716;8.962;2023-08-30T00:34:38;7.07;;;4.30;;
71104;SDS011;58760;48.716;8.962;2023-08-30T00:37:03;10.25;;;4.43;;
71104;SDS011;58760;48.716;8.962;2023-08-30T00:39:29;8.98;;;4.50;;
71104;SDS011;58760;48.716;8.962;2023-08-30T00:41:54;8.02;;;4.63;;
71104;SDS011;58760;48.716;8.962;2023-08-30T00:44:19;6.65;;;4.47;;
71104;SDS011;58760;48.716;8.962;2023-08-30T00:46:45;6.93;;;4.68;;
71104;SDS011;58760;48.716;8.962;2023-08-30T00:49:10;8.32;;;4.88;;
71104;SDS011;58760;48.716;8.962;2023-08-30T00:51:36;6.97;;;4.50;;
71104;SDS011;58760;48.716;8.962;2023-08-30T00:54:02;8.40;;;4.90;;
71104;SDS011;58760;48.716;8.962;2023-08-30T00:56:28;7.00;;;4.70;;
71104;SDS011;58760;48.716;8.962;2023-08-30T00:58:54;7.63;;;5.03;;
71104;SDS011;58760;48.716;8.962;2023-08-30T01:01:20;8.98;;;4.50;;
71104;SDS011;58760;48.716;8.962;2023-08-30T01:03:46;8.30;;;4.75;;
71104;SDS011;58760;48.716;8.962;2023-08-30T01:06:11;6.70;;;4.60;;
71104;SDS011;58760;48.716;8.962;2023-08-30T01:08:38;9.30;;;4.90;;
71104;SDS011;58760;48.716;8.962;2023-08-30T01:13:48;7.53;;;4.63;;
71104;SDS011;58760;48.716;8.962;2023-08-30T01:16:21;9.18;;;4.95;;
71104;SDS011;58760;48.716;8.962;2023-08-30T01:18:49;8.27;;;4.70;;
71104;SDS011;58760;48.716;8.962;2023-08-30T01:21:26;9.23;;;5.00;;
71104;SDS011;58760;48.716;8.962;2023-08-30T01:24:01;9.57;;;5.07;;
71104;SDS011;58760;48.716;8.962;2023-08-30T01:29:36;14.50;;;5.28;;
71104;SDS011;58760;48.716;8.962;2023-08-30T01:32:03;6.60;;;4.35;;
71104;SDS011;58760;48.716;8.962;2023-08-30T01:34:30;6.93;;;4.47;;
71104;SDS011;58760;48.716;8.962;2023-08-30T01:36:56;7.70;;;4.97;;
71104;SDS011;58760;48.716;8.962;2023-08-30T01:39:26;7.53;;;4.88;;
71104;SDS011;58760;48.716;8.962;2023-08-30T01:41:52;9.73;;;4.55;;
71104;SDS011;58760;48.716;8.962;2023-08-30T01:44:24;11.13;;;4.90;;
71104;SDS011;58760;48.716;8.962;2023-08-30T01:46:51;7.35;;;4.93;;
71104;SDS011;58760;48.716;8.962;2023-08-30T01:49:17;8.15;;;5.25;;
71104;SDS011;58760;48.716;8.962;2023-08-30T01:51:42;8.63;;;5.10;;
71104;SDS011;58760;48.716;8.962;2023-08-30T01:54:09;8.23;;;5.10;;
71104;SDS011;58760;48.716;8.962;2023-08-30T01:56:42;10.52;;;5.13;;
71104;SDS011;58760;48.716;8.962;2023-08-30T01:59:07;9.82;;;4.70;;
71104;SDS011;58760;48.716;8.962;2023-08-30T02:01:32;8.95;;;5.10;;
71104;SDS011;58760;48.716;8.962;2023-08-30T02:03:58;9.68;;;5.50;;
71104;SDS011;58760;48.716;8.962;2023-08-30T02:06:26;9.05;;;4.65;;
71104;SDS011;58760;48.716;8.962;2023-08-30T02:09:09;8.65;;;5.00;;
71104;SDS011;58760;48.716;8.962;2023-08-30T02:11:48;7.60;;;5.20;;
71104;SDS011;58760;48.716;8.962;2023-08-30T02:14:16;8.38;;;4.97;;
71104;SDS011;58760;48.716;8.962;2023-08-30T02:16:43;7.63;;;5.75;;
71104;SDS011;58760;48.716;8.962;2023-08-30T02:19:11;7.40;;;5.13;;
71104;SDS011;58760;48.716;8.962;2023-08-30T02:21:39;10.98;;;5.90;;
71104;SDS011;58760;48.716;8.962;2023-08-30T02:24:05;9.02;;;5.72;;
71104;SDS011;58760;48.716;8.962;2023-08-30T02:26:31;8.45;;;5.65;;
71104;SDS011;58760;48.716;8.962;2023-08-30T02:28:56;8.15;;;5.85;;
71104;SDS011;58760;48.716;8.962;2023-08-30T02:31:21;8.27;;;6.10;;
71104;SDS011;58760;48.716;8.962;2023-08-30T02:33:47;9.20;;;5.78;;
71104;SDS011;58760;48.716;8.962;2023-08-30T02:36:12;7.53;;;5.18;;
71104;SDS011;58760;48.716;8.962;2023-08-30T02:38:37;10.05;;;6.15;;
71104;SDS011;58760;48.716;8.962;2023-08-30T02:41:03;8.73;;;6.25;;
71104;SDS011;58760;48.716;8.962;2023-08-30T02:43:28;7.72;;;5.88;;
71104;SDS011;58760;48.716;8.962;2023-08-30T02:45:54;8.82;;;6.75;;
71104;SDS011;58760;48.716;8.962;2023-08-30T02:48:19;8.98;;;6.78;;
71104;SDS011;58760;48.716;8.962;2023-08-30T02:50:45;10.82;;;6.80;;
71104;SDS011;58760;48.716;8.962;2023-08-30T02:53:10;10.75;;;6.90;;
71104;SDS011;58760;48.716;8.962;2023-08-30T02:55:36;10.27;;;7.30;;
71104;SDS011;58760;48.716;8.962;2023-08-30T02:58:01;9.48;;;7.43;;
71104;SDS011;58760;48.716;8.962;2023-08-30T03:00:27;10.68;;;7.80;;
71104;SDS011;58760;48.716;8.962;2023-08-30T03:02:52;11.07;;;7.68;;
71104;SDS011;58760;48.716;8.962;2023-08-30T03:05:18;11.20;;;7.97;;
71104;SDS011;58760;48.716;8.962;2023-08-30T03:07:43;12.10;;;8.35;;
71104;SDS011;58760;48.716;8.962;2023-08-30T03:10:09;11.45;;;8.10;;
71104;SDS011;58760;48.716;8.962;2023-08-30T03:12:34;10.80;;;8.48;;
71104;SDS011;58760;48.716;8.962;2023-08-30T03:15:00;10.25;;;8.02;;
71104;SDS011;58760;48.716;8.962;2023-08-30T03:17:25;10.45;;;8.18;;
71104;SDS011;58760;48.716;8.962;2023-08-30T03:19:51;12.00;;;8.32;;
71104;SDS011;58760;48.716;8.962;2023-08-30T03:22:20;10.57;;;8.18;;
71104;SDS011;58760;48.716;8.962;2023-08-30T03:24:46;10.88;;;8.48;;
71104;SDS011;58760;48.716;8.962;2023-08-30T03:27:11;11.07;;;9.07;;
71104;SDS011;58760;48.716;8.962;2023-08-30T03:29:36;10.90;;;8.52;;
71104;SDS011;58760;48.716;8.962;2023-08-30T03:32:02;10.27;;;8.02;;
71104;SDS011;58760;48.716;8.962;2023-08-30T03:34:27;10.57;;;8.45;;
71104;SDS011;58760;48.716;8.962;2023-08-30T03:36:52;10.52;;;8.05;;
71104;SDS011;58760;48.716;8.962;2023-08-30T03:41:48;10.32;;;8.20;;
71104;SDS011;58760;48.716;8.962;2023-08-30T03:44:14;10.18;;;7.80;;
71104;SDS011;58760;48.716;8.962;2023-08-30T03:46:39;10.38;;;8.18;;
71104;SDS011;58760;48.716;8.962;2023-08-30T03:49:05;10.40;;;7.65;;
71104;SDS011;58760;48.716;8.962;2023-08-30T03:51:30;10.75;;;8.23;;
71104;SDS011;58760;48.716;8.962;2023-08-30T03:53:55;11.20;;;8.32;;
71104;SDS011;58760;48.716;8.962;2023-08-30T03:56:23;10.95;;;8.45;;
71104;SDS011;58760;48.716;8.962;2023-08-30T03:58:49;11.02;;;7.97;;
71104;SDS011;58760;48.716;8.962;2023-08-30T04:01:14;10.68;;;8.52;;
71104;SDS011;58760;48.716;8.962;2023-08-30T04:03:39;11.27;;;8.65;;
71104;SDS011;58760;48.716;8.962;2023-08-30T04:06:05;11.57;;;8.82;;
71104;SDS011;58760;48.716;8.962;2023-08-30T04:08:30;12.25;;;8.32;;
71104;SDS011;58760;48.716;8.962;2023-08-30T04:10:56;11.77;;;8.90;;
71104;SDS011;58760;48.716;8.962;2023-08-30T04:13:22;11.80;;;9.10;;
71104;SDS011;58760;48.716;8.962;2023-08-30T04:15:47;10.95;;;8.60;;
71104;SDS011;58760;48.716;8.962;2023-08-30T04:18:12;11.57;;;8.70;;
71104;SDS011;58760;48.716;8.962;2023-08-30T04:20:42;10.20;;;8.15;;
71104;SDS011;58760;48.716;8.962;2023-08-30T04:23:11;10.93;;;7.97;;
71104;SDS011;58760;48.716;8.962;2023-08-30T04:25:37;11.57;;;8.50;;
71104;SDS011;58760;48.716;8.962;2023-08-30T04:28:02;13.30;;;8.23;;
71104;SDS011;58760;48.716;8.962;2023-08-30T04:30:28;10.13;;;7.38;;
71104;SDS011;58760;48.716;8.962;2023-08-30T04:32:53;9.45;;;6.43;;
71104;SDS011;58760;48.716;8.962;2023-08-30T04:35:19;8.30;;;6.28;;
71104;SDS011;58760;48.716;8.962;2023-08-30T04:37:45;14.35;;;6.55;;
71104;SDS011;58760;48.716;8.962;2023-08-30T04:40:10;8.43;;;6.45;;
71104;SDS011;58760;48.716;8.962;2023-08-30T04:42:36;9.68;;;6.78;;
71104;SDS011;58760;48.716;8.962;2023-08-30T04:45:02;8.48;;;6.82;;
71104;SDS011;58760;48.716;8.962;2023-08-30T04:47:28;9.13;;;6.93;;
71104;SDS011;58760;48.716;8.962;2023-08-30T04:49:55;10.55;;;7.90;;
71104;SDS011;58760;48.716;8.962;2023-08-30T04:52:20;10.00;;;7.57;;
71104;SDS011;58760;48.716;8.962;2023-08-30T04:54:46;10.43;;;7.95;;
71104;SDS011;58760;48.716;8.962;2023-08-30T04:57:13;10.88;;;8.02;;
71104;SDS011;58760;48.716;8.962;2023-08-30T04:59:41;9.90;;;7.47;;
71104;SDS011;58760;48.716;8.962;2023-08-30T05:02:07;8.90;;;6.78;;
71104;SDS011;58760;48.716;8.962;2023-08-30T05:04:32;10.00;;;7.78;;
71104;SDS011;58760;48.716;8.962;2023-08-30T05:06:58;10.23;;;7.50;;
71104;SDS011;58760;48.716;8.962;2023-08-30T05:09:23;10.02;;;7.28;;
71104;SDS011;58760;48.716;8.962;2023-08-30T05:11:50;10.35;;;7.53;;
71104;SDS011;58760;48.716;8.962;2023-08-30T05:14:16;10.82;;;7.22;;
71104;SDS011;58760;48.716;8.962;2023-08-30T05:16:41;10.90;;;7.60;;
71104;SDS011;58760;48.716;8.962;2023-08-30T05:19:07;12.38;;;7.60;;
71104;SDS011;58760;48.716;8.962;2023-08-30T05:21:32;9.77;;;7.28;;
71104;SDS011;58760;48.716;8.962;2023-08-30T05:23:57;9.80;;;7.45;;
71104;SDS011;58760;48.716;8.962;2023-08-30T05:26:23;9.50;;;7.35;;
71104;SDS011;58760;48.716;8.962;2023-08-30T05:28:48;10.48;;;7.50;;
71104;SDS011;58760;48.716;8.962;2023-08-30T05:31:14;10.60;;;7.95;;
71104;SDS011;58760;48.716;8.962;2023-08-30T05:33:39;13.55;;;7.45;;
71104;SDS011;58760;48.716;8.962;2023-08-30T05:36:04;11.93;;;7.90;;
71104;SDS011;58760;48.716;8.962;2023-08-30T05:38:30;11.15;;;7.15;;
71104;SDS011;58760;48.716;8.962;2023-08-30T05:40:55;9.75;;;7.32;;
71104;SDS011;58760;48.716;8.962;2023-08-30T05:43:20;10.70;;;7.20;;
71104;SDS011;58760;48.716;8.962;2023-08-30T05:45:45;10.73;;;6.88;;
71104;SDS011;58760;48.716;8.962;2023-08-30T05:48:11;9.65;;;7.35;;
71104;SDS011;58760;48.716;8.962;2023-08-30T05:50:36;10.70;;;6.72;;
71104;SDS011;58760;48.716;8.962;2023-08-30T05:53:02;10.02;;;6.55;;
71104;SDS011;58760;48.716;8.962;2023-08-30T05:55:29;10.20;;;6.28;;
71104;SDS011;58760;48.716;8.962;2023-08-30T05:57:54;8.65;;;6.50;;
71104;SDS011;58760;48.716;8.962;2023-08-30T06:00:19;8.65;;;5.93;;
71104;SDS011;58760;48.716;8.962;2023-08-30T06:02:45;9.20;;;6.25;;
71104;SDS011;58760;48.716;8.962;2023-08-30T06:05:10;8.63;;;5.60;;
71104;SDS011;58760;48.716;8.962;2023-08-30T06:07:36;8.65;;;6.00;;
71104;SDS011;58760;48.716;8.962;2023-08-30T06:10:01;7.95;;;5.63;;
71104;SDS011;58760;48.716;8.962;2023-08-30T06:12:27;7.40;;;5.15;;
71104;SDS011;58760;48.716;8.962;2023-08-30T06:14:53;7.50;;;5.30;;
71104;SDS011;58760;48.716;8.962;2023-08-30T06:17:19;9.00;;;6.03;;
71104;SDS011;58760;48.716;8.962;2023-08-30T06:19:45;8.13;;;5.63;;
71104;SDS011;58760;48.716;8.962;2023-08-30T06:22:11;8.95;;;5.82;;
71104;SDS011;58760;48.716;8.962;2023-08-30T06:24:36;9.65;;;5.57;;
71104;SDS011;58760;48.716;8.962;2023-08-30T06:27:02;7.45;;;5.38;;
71104;SDS011;58760;48.716;8.962;2023-08-30T06:29:27;8.25;;;5.93;;
71104;SDS011;58760;48.716;8.962;2023-08-30T06:31:53;8.63;;;5.80;;
71104;SDS011;58760;48.716;8.962;2023-08-30T06:34:18;7.35;;;5.40;;
71104;SDS011;58760;48.716;8.962;2023-08-30T06:36:45;8.95;;;6.25;;
71104;SDS011;58760;48.716;8.962;2023-08-30T06:39:10;10.20;;;6.50;;
71104;SDS011;58760;48.716;8.962;2023-08-30T06:41:35;9.60;;;6.55;;
71104;SDS011;58760;48.716;8.962;2023-08-30T06:44:01;11.07;;;6.03;;
71104;SDS011;58760;48.716;8.962;2023-08-30T06:46:26;11.38;;;6.95;;
71104;SDS011;58760;48.716;8.962;2023-08-30T06:48:51;10.80;;;7.18;;
71104;SDS011;58760;48.716;8.962;2023-08-30T06:51:17;10.55;;;7.72;;
71104;SDS011;58760;48.716;8.962;2023-08-30T06:53:42;12.45;;;8.38;;
71104;SDS011;58760;48.716;8.962;2023-08-30T06:56:07;12.20;;;7.72;;
71104;SDS011;58760;48.716;8.962;2023-08-30T06:58:33;12.30;;;8.20;;
71104;SDS011;58760;48.716;8.962;2023-08-30T07:00:58;13.20;;;7.93;;
71104;SDS011;58760;48.716;8.962;2023-08-30T07:03:24;11.32;;;8.32;;
71104;SDS011;58760;48.716;8.962;2023-08-30T07:05:52;14.32;;;9.23;;
71104;SDS011;58760;48.716;8.962;2023-08-30T07:08:18;13.43;;;8.55;;
71104;SDS011;58760;48.716;8.962;2023-08-30T07:10:43;14.23;;;8.43;;
71104;SDS011;58760;48.716;8.962;2023-08-30T07:13:09;14.73;;;8.50;;
71104;SDS011;58760;48.716;8.962;2023-08-30T07:15:41;11.65;;;8.32;;
71104;SDS011;58760;48.716;8.962;2023-08-30T07:18:07;11.73;;;8.48;;
71104;SDS011;58760;48.716;8.962;2023-08-30T07:20:33;12.23;;;8.05;;
71104;SDS011;58760;48.716;8.962;2023-08-30T07:22:59;12.23;;;8.52;;
71104;SDS011;58760;48.716;8.962;2023-08-30T07:25:25;11.48;;;8.73;;
71104;SDS011;58760;48.716;8.962;2023-08-30T07:27:51;14.82;;;8.75;;
71104;SDS011;58760;48.716;8.962;2023-08-30T07:30:16;13.93;;;8.95;;
71104;SDS011;58760;48.716;8.962;2023-08-30T07:32:41;13.80;;;9.02;;
71104;SDS011;58760;48.716;8.962;2023-08-30T07:35:07;10.73;;;7.93;;
71104;SDS011;58760;48.716;8.962;2023-08-30T07:37:33;13.25;;;8.50;;
71104;SDS011;58760;48.716;8.962;2023-08-30T07:39:59;10.80;;;7.70;;
71104;SDS011;58760;48.716;8.962;2023-08-30T07:42:25;13.45;;;7.90;;
71104;SDS011;58760;48.716;8.962;2023-08-30T07:44:50;10.07;;;7.35;;
71104;SDS011;58760;48.716;8.962;2023-08-30T07:47:16;11.65;;;7.93;;
71104;SDS011;58760;48.716;8.962;2023-08-30T07:49:41;11.38;;;7.97;;
71104;SDS011;58760;48.716;8.962;2023-08-30T07:52:07;11.60;;;7.43;;
71104;SDS011;58760;48.716;8.962;2023-08-30T07:54:35;11.52;;;7.30;;
71104;SDS011;58760;48.716;8.962;2023-08-30T07:57:01;11.23;;;7.65;;
71104;SDS011;58760;48.716;8.962;2023-08-30T07:59:27;10.02;;;7.32;;
71104;SDS011;58760;48.716;8.962;2023-08-30T08:01:53;9.18;;;6.28;;
71104;SDS011;58760;48.716;8.962;2023-08-30T08:04:18;8.55;;;5.70;;
71104;SDS011;58760;48.716;8.962;2023-08-30T08:06:44;9.10;;;5.88;;
71104;SDS011;58760;48.716;8.962;2023-08-30T08:09:09;7.70;;;5.20;;
71104;SDS011;58760;48.716;8.962;2023-08-30T08:11:34;9.32;;;5.55;;
71104;SDS011;58760;48.716;8.962;2023-08-30T08:14:00;10.32;;;5.38;;
71104;SDS011;58760;48.716;8.962;2023-08-30T08:16:25;10.55;;;5.53;;
71104;SDS011;58760;48.716;8.962;2023-08-30T08:18:50;9.70;;;5.10;;
71104;SDS011;58760;48.716;8.962;2023-08-30T08:21:17;7.60;;;4.78;;
71104;SDS011;58760;48.716;8.962;2023-08-30T08:23:42;11.25;;;4.90;;
71104;SDS011;58760;48.716;8.962;2023-08-30T08:26:08;7.32;;;4.68;;
71104;SDS011;58760;48.716;8.962;2023-08-30T08:28:33;8.02;;;4.65;;
71104;SDS011;58760;48.716;8.962;2023-08-30T08:30:58;8.02;;;4.90;;
71104;SDS011;58760;48.716;8.962;2023-08-30T08:33:24;7.47;;;4.03;;
71104;SDS011;58760;48.716;8.962;2023-08-30T08:35:49;9.75;;;4.38;;
71104;SDS011;58760;48.716;8.962;2023-08-30T08:38:15;6.65;;;3.95;;
71104;SDS011;58760;48.716;8.962;2023-08-30T08:40:40;7.30;;;3.95;;
71104;SDS011;58760;48.716;8.962;2023-08-30T08:43:06;6.35;;;3.50;;
71104;SDS011;58760;48.716;8.962;2023-08-30T08:45:35;7.70;;;4.20;;
71104;SDS011;58760;48.716;8.962;2023-08-30T08:48:04;5.45;;;3.30;;
71104;SDS011;58760;48.716;8.962;2023-08-30T08:50:33;5.60;;;3.30;;
71104;SDS011;58760;48.716;8.962;2023-08-30T08:52:59;5.80;;;3.22;;
71104;SDS011;58760;48.716;8.962;2023-08-30T08:55:26;7.40;;;3.88;;
71104;SDS011;58760;48.716;8.962;2023-08-30T08:57:55;7.25;;;3.70;;
71104;SDS011;58760;48.716;8.962;2023-08-30T09:00:21;5.82;;;3.03;;
71104;SDS011;58760;48.716;8.962;2023-08-30T09:02:47;6.53;;;3.22;;
71104;SDS011;58760;48.716;8.962;2023-08-30T09:05:17;6.10;;;3.50;;
71104;SDS011;58760;48.716;8.962;2023-08-30T09:07:44;6.25;;;3.40;;
71104;SDS011;58760;48.716;8.962;2023-08-30T09:10:09;6.25;;;3.10;;
71104;SDS011;58760;48.716;8.962;2023-08-30T09:12:35;6.18;;;2.80;;
71104;SDS011;58760;48.716;8.962;2023-08-30T09:15:00;6.93;;;2.72;;
71104;SDS011;58760;48.716;8.962;2023-08-30T09:17:38;5.18;;;2.63;;
71104;SDS011;58760;48.716;8.962;2023-08-30T09:20:10;4.63;;;2.55;;
71104;SDS011;58760;48.716;8.962;2023-08-30T09:22:37;6.03;;;3.05;;
71104;SDS011;58760;48.716;8.962;2023-08-30T09:25:03;6.05;;;3.10;;
71104;SDS011;58760;48.716;8.962;2023-08-30T09:27:33;6.38;;;2.80;;
71104;SDS011;58760;48.716;8.962;2023-08-30T09:29:58;6.53;;;2.72;;
71104;SDS011;58760;48.716;8.962;2023-08-30T09:32:24;6.05;;;3.10;;
71104;SDS011;58760;48.716;8.962;2023-08-30T09:34:49;7.43;;;2.90;;
71104;SDS011;58760;48.716;8.962;2023-08-30T09:37:21;5.10;;;2.97;;
71104;SDS011;58760;48.716;8.962;2023-08-30T09:39:50;5.93;;;3.08;;
71104;SDS011;58760;48.716;8.962;2023-08-30T09:42:18;5.82;;;3.15;;
71104;SDS011;58760;48.716;8.962;2023-08-30T09:44:44;5.45;;;2.85;;
71104;SDS011;58760;48.716;8.962;2023-08-30T09:47:10;5.65;;;2.72;;
71104;SDS011;58760;48.716;8.962;2023-08-30T09:49:47;5.57;;;2.50;;
71104;SDS011;58760;48.716;8.962;2023-08-30T09:52:15;4.72;;;2.55;;
71104;SDS011;58760;48.716;8.962;2023-08-30T09:57:10;6.35;;;2.50;;
71104;SDS011;58760;48.716;8.962;2023-08-30T09:59:35;5.40;;;2.70;;
71104;SDS011;58760;48.716;8.962;2023-08-30T10:02:03;6.55;;;2.63;;
71104;SDS011;58760;48.716;8.962;2023-08-30T10:04:29;4.50;;;2.22;;
71104;SDS011;58760;48.716;8.962;2023-08-30T10:06:56;6.55;;;2.47;;
71104;SDS011;58760;48.716;8.962;2023-08-30T10:09:24;6.50;;;2.63;;
71104;SDS011;58760;48.716;8.962;2023-08-30T10:11:50;5.07;;;2.28;;
71104;SDS011;58760;48.716;8.962;2023-08-30T10:14:16;5.10;;;2.17;;
71104;SDS011;58760;48.716;8.962;2023-08-30T10:16:43;4.65;;;2.40;;
71104;SDS011;58760;48.716;8.962;2023-08-30T10:19:16;3.95;;;2.10;;
71104;SDS011;58760;48.716;8.962;2023-08-30T10:21:48;4.07;;;1.92;;
71104;SDS011;58760;48.716;8.962;2023-08-30T10:24:27;6.53;;;2.20;;
71104;SDS011;58760;48.716;8.962;2023-08-30T10:26:54;6.35;;;2.15;;
71104;SDS011;58760;48.716;8.962;2023-08-30T10:29:21;3.33;;;1.73;;
71104;SDS011;58760;48.716;8.962;2023-08-30T10:31:48;6.68;;;2.70;;
71104;SDS011;58760;48.716;8.962;2023-08-30T10:34:15;4.45;;;2.50;;
71104;SDS011;58760;48.716;8.962;2023-08-30T10:36:42;4.00;;;2.30;;
71104;SDS011;58760;48.716;8.962;2023-08-30T10:39:12;4.05;;;2.30;;
71104;SDS011;58760;48.716;8.962;2023-08-30T10:41:53;6.90;;;2.50;;
71104;SDS011;58760;48.716;8.962;2023-08-30T10:44:19;4.47;;;2.35;;
71104;SDS011;58760;48.716;8.962;2023-08-30T10:46:51;4.70;;;2.15;;
71104;SDS011;58760;48.716;8.962;2023-08-30T10:49:18;3.35;;;1.75;;
71104;SDS011;58760;48.716;8.962;2023-08-30T10:51:44;6.53;;;1.63;;
71104;SDS011;58760;48.716;8.962;2023-08-30T10:54:10;4.60;;;2.05;;
71104;SDS011;58760;48.716;8.962;2023-08-30T10:56:45;5.10;;;2.10;;
71104;SDS011;58760;48.716;8.962;2023-08-30T10:59:19;3.95;;;1.80;;
71104;SDS011;58760;48.716;8.962;2023-08-30T11:04:10;4.13;;;1.83;;
71104;SDS011;58760;48.716;8.962;2023-08-30T11:06:39;4.05;;;1.92;;
71104;SDS011;58760;48.716;8.962;2023-08-30T11:09:04;5.50;;;2.10;;
71104;SDS011;58760;48.716;8.962;2023-08-30T11:11:30;3.95;;;1.73;;
71104;SDS011;58760;48.716;8.962;2023-08-30T11:14:03;3.65;;;1.73;;
71104;SDS011;58760;48.716;8.962;2023-08-30T11:16:29;5.05;;;2.05;;
71104;SDS011;58760;48.716;8.962;2023-08-30T11:18:55;5.05;;;1.90;;
71104;SDS011;58760;48.716;8.962;2023-08-30T11:21:20;4.43;;;2.03;;
71104;SDS011;58760;48.716;8.962;2023-08-30T11:23:46;6.57;;;2.22;;
71104;SDS011;58760;48.716;8.962;2023-08-30T11:26:11;4.53;;;1.70;;
71104;SDS011;58760;48.716;8.962;2023-08-30T11:28:37;5.57;;;1.95;;
71104;SDS011;58760;48.716;8.962;2023-08-30T11:31:08;10.40;;;2.60;;
71104;SDS011;58760;48.716;8.962;2023-08-30T11:33:33;10.18;;;2.42;;
71104;SDS011;58760;48.716;8.962;2023-08-30T11:35:59;5.03;;;2.20;;
71104;SDS011;58760;48.716;8.962;2023-08-30T11:38:26;5.93;;;2.17;;
71104;SDS011;58760;48.716;8.962;2023-08-30T11:40:51;4.05;;;2.13;;
71104;SDS011;58760;48.716;8.962;2023-08-30T11:43:17;6.18;;;2.63;;
71104;SDS011;58760;48.716;8.962;2023-08-30T11:45:42;4.75;;;2.35;;
71104;SDS011;58760;48.716;8.962;2023-08-30T11:48:07;4.97;;;2.50;;
71104;SDS011;58760;48.716;8.962;2023-08-30T11:50:33;5.45;;;2.45;;
71104;SDS011;58760;48.716;8.962;2023-08-30T11:53:00;7.07;;;2.83;;
71104;SDS011;58760;48.716;8.962;2023-08-30T11:55:25;5.13;;;2.90;;
71104;SDS011;58760;48.716;8.962;2023-08-30T11:57:51;5.85;;;3.22;;
71104;SDS011;58760;48.716;8.962;2023-08-30T12:00:18;5.82;;;3.20;;
71104;SDS011;58760;48.716;8.962;2023-08-30T12:02:44;7.75;;;3.30;;
71104;SDS011;58760;48.716;8.962;2023-08-30T12:05:11;5.55;;;3.40;;
71104;SDS011;58760;48.716;8.962;2023-08-30T12:07:38;5.10;;;3.38;;
71104;SDS011;58760;48.716;8.962;2023-08-30T12:10:07;6.40;;;3.20;;
71104;SDS011;58760;48.716;8.962;2023-08-30T12:12:34;5.57;;;3.55;;
71104;SDS011;58760;48.716;8.962;2023-08-30T12:15:11;7.03;;;3.38;;
71104;SDS011;58760;48.716;8.962;2023-08-30T12:17:37;6.25;;;3.50;;
71104;SDS011;58760;48.716;8.962;2023-08-30T12:20:02;4.85;;;2.70;;
71104;SDS011;58760;48.716;8.962;2023-08-30T12:22:38;5.78;;;3.22;;
71104;SDS011;58760;48.716;8.962;2023-08-30T12:25:04;7.55;;;3.42;;
71104;SDS011;58760;48.716;8.962;2023-08-30T12:27:41;5.82;;;3.45;;
71104;SDS011;58760;48.716;8.962;2023-08-30T12:30:07;5.72;;;3.20;;
71104;SDS011;58760;48.716;8.962;2023-08-30T12:32:32;5.18;;;3.00;;
71104;SDS011;58760;48.716;8.962;2023-08-30T12:34:58;5.60;;;3.42;;
71104;SDS011;58760;48.716;8.962;2023-08-30T12:37:23;6.35;;;3.25;;
71104;SDS011;58760;48.716;8.962;2023-08-30T12:39:49;5.97;;;3.75;;
71104;SDS011;58760;48.716;8.962;2023-08-30T12:42:14;4.90;;;2.80;;
71104;SDS011;58760;48.716;8.962;2023-08-30T12:44:40;4.07;;;2.30;;
71104;SDS011;58760;48.716;8.962;2023-08-30T12:47:05;5.47;;;2.60;;
71104;SDS011;58760;48.716;8.962;2023-08-30T12:49:30;3.58;;;2.00;;
71104;SDS011;58760;48.716;8.962;2023-08-30T12:51:56;3.70;;;1.73;;
71104;SDS011;58760;48.716;8.962;2023-08-30T12:54:21;3.45;;;1.25;;
71104;SDS011;58760;48.716;8.962;2023-08-30T12:56:46;3.72;;;1.88;;
71104;SDS011;58760;48.716;8.962;2023-08-30T12:59:12;4.10;;;1.70;;
71104;SDS011;58760;48.716;8.962;2023-08-30T13:01:37;3.95;;;1.95;;
71104;SDS011;58760;48.716;8.962;2023-08-30T13:04:02;3.47;;;1.70;;
71104;SDS011;58760;48.716;8.962;2023-08-30T13:06:28;6.53;;;1.88;;
71104;SDS011;58760;48.716;8.962;2023-08-30T13:11:19;3.23;;;1.70;;
71104;SDS011;58760;48.716;8.962;2023-08-30T13:16:09;5.13;;;2.00;;
71104;SDS011;58760;48.716;8.962;2023-08-30T13:18:35;3.90;;;1.83;;
71104;SDS011;58760;48.716;8.962;2023-08-30T13:23:25;4.97;;;1.87;;
71104;SDS011;58760;48.716;8.962;2023-08-30T13:25:51;3.83;;;1.50;;
71104;SDS011;58760;48.716;8.962;2023-08-30T13:28:16;3.28;;;1.40;;
71104;SDS011;58760;48.716;8.962;2023-08-30T13:30:44;4.07;;;1.40;;
71104;SDS011;58760;48.716;8.962;2023-08-30T13:33:10;4.13;;;1.50;;
71104;SDS011;58760;48.716;8.962;2023-08-30T13:35:38;3.33;;;1.23;;
71104;SDS011;58760;48.716;8.962;2023-08-30T13:38:06;4.82;;;1.20;;
71104;SDS011;58760;48.716;8.962;2023-08-30T13:40:32;3.72;;;1.20;;
71104;SDS011;58760;48.716;8.962;2023-08-30T13:42:57;3.58;;;1.40;;
71104;SDS011;58760;48.716;8.962;2023-08-30T13:45:23;3.35;;;1.20;;
71104;SDS011;58760;48.716;8.962;2023-08-30T13:47:48;2.95;;;1.20;;
71104;SDS011;58760;48.716;8.962;2023-08-30T13:50:17;4.45;;;1.50;;
71104;SDS011;58760;48.716;8.962;2023-08-30T13:52:42;3.25;;;1.17;;
71104;SDS011;58760;48.716;8.962;2023-08-30T13:55:07;3.83;;;1.23;;
71104;SDS011;58760;48.716;8.962;2023-08-30T13:57:33;1.80;;;1.08;;
71104;SDS011;58760;48.716;8.962;2023-08-30T13:59:58;2.20;;;1.20;;
71104;SDS011;58760;48.716;8.962;2023-08-30T14:02:24;3.83;;;1.20;;
71104;SDS011;58760;48.716;8.962;2023-08-30T14:04:50;3.08;;;1.35;;
71104;SDS011;58760;48.716;8.962;2023-08-30T14:09:41;2.10;;;1.20;;
71104;SDS011;58760;48.716;8.962;2023-08-30T14:14:31;2.17;;;1.02;;
71104;SDS011;58760;48.716;8.962;2023-08-30T14:16:57;3.95;;;1.20;;
71104;SDS011;58760;48.716;8.962;2023-08-30T14:19:22;2.42;;;1.40;;
71104;SDS011;58760;48.716;8.962;2023-08-30T14:21:47;3.20;;;1.27;;
71104;SDS011;58760;48.716;8.962;2023-08-30T14:24:13;3.88;;;1.50;;
71104;SDS011;58760;48.716;8.962;2023-08-30T14:26:38;2.65;;;1.35;;
71104;SDS011;58760;48.716;8.962;2023-08-30T14:29:04;2.53;;;1.30;;
71104;SDS011;58760;48.716;8.962;2023-08-30T14:31:29;2.30;;;1.40;;
71104;SDS011;58760;48.716;8.962;2023-08-30T14:33:55;3.05;;;1.50;;
71104;SDS011;58760;48.716;8.962;2023-08-30T14:36:24;3.30;;;1.30;;
71104;SDS011;58760;48.716;8.962;2023-08-30T14:41:15;4.60;;;1.33;;
71104;SDS011;58760;48.716;8.962;2023-08-30T14:43:42;3.70;;;1.30;;
71104;SDS011;58760;48.716;8.962;2023-08-30T14:46:08;2.65;;;1.38;;
71104;SDS011;58760;48.716;8.962;2023-08-30T14:48:33;3.60;;;1.25;;
71104;SDS011;58760;48.716;8.962;2023-08-30T14:50:59;4.07;;;1.33;;
71104;SDS011;58760;48.716;8.962;2023-08-30T14:53:25;3.13;;;1.23;;
71104;SDS011;58760;48.716;8.962;2023-08-30T14:55:50;4.30;;;1.25;;
71104;SDS011;58760;48.716;8.962;2023-08-30T14:58:16;2.67;;;1.20;;
71104;SDS011;58760;48.716;8.962;2023-08-30T15:00:41;3.08;;;1.50;;
71104;SDS011;58760;48.716;8.962;2023-08-30T15:03:07;3.00;;;1.20;;
71104;SDS011;58760;48.716;8.962;2023-08-30T15:05:32;4.07;;;1.40;;